createdAt,value
2023-03-05T00:00:03.175Z,10.00
2023-03-05T00:02:31.243Z,10.00
2023-03-05T00:04:59.340Z,9.90
2023-03-05T00:07:27.380Z,9.80
2023-03-05T00:09:55.437Z,9.80
2023-03-05T00:12:23.525Z,9.90
2023-03-05T00:14:53.014Z,9.90
2023-03-05T00:17:21.204Z,9.90
2023-03-05T00:19:49.267Z,9.90
2023-03-05T00:22:17.369Z,10.00
2023-03-05T00:24:45.418Z,10.00
2023-03-05T00:27:13.444Z,10.00
2023-03-05T00:29:41.526Z,10.00
2023-03-05T00:32:11.027Z,10.00
2023-03-05T00:34:39.116Z,10.00
2023-03-05T00:37:07.497Z,10.00
2023-03-05T00:39:35.634Z,9.90
2023-03-05T00:42:03.679Z,9.90
2023-03-05T00:44:31.727Z,9.90
2023-03-05T00:46:59.756Z,10.00
2023-03-05T00:49:29.248Z,10.00
2023-03-05T00:51:57.305Z,10.00
2023-03-05T00:54:25.361Z,9.90
2023-03-05T00:56:53.450Z,10.00
2023-03-05T00:59:21.546Z,10.00
2023-03-05T01:01:49.579Z,10.00
2023-03-05T01:04:17.642Z,10.00
2023-03-05T01:06:47.094Z,10.00
2023-03-05T01:09:15.209Z,9.90
2023-03-05T01:11:43.405Z,9.90
2023-03-05T01:14:11.456Z,10.00
2023-03-05T01:16:39.578Z,10.00
2023-03-05T01:19:07.648Z,10.00
2023-03-05T01:21:35.913Z,10.00
2023-03-05T01:24:06.061Z,10.00
2023-03-05T01:26:34.108Z,10.00
2023-03-05T01:29:02.159Z,10.10
2023-03-05T01:31:30.281Z,10.00
2023-03-05T01:34:00.158Z,10.00
2023-03-05T01:36:28.351Z,10.00
2023-03-05T01:38:56.394Z,9.90
2023-03-05T01:41:25.985Z,9.90
2023-03-05T01:43:54.446Z,9.90
2023-03-05T01:46:30.888Z,10.00
2023-03-05T01:49:18.994Z,10.00
2023-03-05T01:51:51.422Z,9.90
2023-03-05T01:54:20.498Z,9.90
2023-03-05T01:56:50.412Z,10.00
2023-03-05T01:59:18.525Z,10.00
2023-03-05T02:01:49.141Z,10.00
2023-03-05T02:04:18.775Z,10.00
2023-03-05T02:06:46.826Z,10.00
2023-03-05T02:09:14.877Z,9.90
2023-03-05T02:11:43.017Z,9.90
2023-03-05T02:14:12.428Z,9.80
2023-03-05T02:16:40.526Z,9.80
2023-03-05T02:19:10.826Z,9.80
2023-03-05T02:21:41.099Z,9.80
2023-03-05T02:24:12.158Z,9.80
2023-03-05T02:26:40.327Z,9.90
2023-03-05T02:29:09.216Z,9.90
2023-03-05T02:31:39.068Z,9.90
2023-03-05T02:34:07.279Z,9.90
2023-03-05T02:36:35.346Z,9.90
2023-03-05T02:39:04.914Z,10.00
2023-03-05T02:41:32.950Z,9.90
2023-03-05T02:44:00.969Z,9.90
2023-03-05T02:46:28.953Z,9.90
2023-03-05T02:48:57.390Z,9.90
2023-03-05T02:51:25.467Z,9.90
2023-03-05T02:53:53.557Z,9.90
2023-03-05T02:56:22.991Z,9.90
2023-03-05T02:58:51.064Z,9.90
2023-03-05T03:01:19.213Z,9.90
2023-03-05T03:03:47.316Z,9.90
2023-03-05T03:06:15.360Z,9.90
2023-03-05T03:08:43.544Z,10.00
2023-03-05T03:11:13.384Z,10.00
2023-03-05T03:13:42.956Z,9.90
2023-03-05T03:16:15.589Z,9.90
2023-03-05T03:18:44.143Z,9.80
2023-03-05T03:21:18.074Z,9.80
2023-03-05T03:23:46.604Z,9.90
2023-03-05T03:26:14.600Z,9.90
2023-03-05T03:28:44.077Z,9.90
2023-03-05T03:31:12.160Z,9.90
2023-03-05T03:33:40.244Z,9.90
2023-03-05T03:36:09.503Z,10.00
2023-03-05T03:38:37.700Z,10.00
2023-03-05T03:41:06.963Z,10.00
2023-03-05T03:43:35.209Z,10.00
2023-03-05T03:46:06.753Z,9.90
2023-03-05T03:48:36.028Z,9.80
2023-03-05T03:51:05.978Z,9.80
2023-03-05T03:53:33.982Z,9.80
2023-03-05T03:56:02.013Z,9.90
2023-03-05T03:58:30.510Z,9.90
2023-03-05T04:00:58.538Z,9.90
2023-03-05T04:03:27.974Z,9.90
2023-03-05T04:05:55.966Z,9.90
2023-03-05T04:08:24.008Z,10.00
2023-03-05T04:10:52.031Z,9.90
2023-03-05T04:13:20.040Z,9.90
2023-03-05T04:15:48.095Z,9.90
2023-03-05T04:18:16.176Z,9.80
2023-03-05T04:20:45.561Z,9.80
2023-03-05T04:23:13.559Z,9.70
2023-03-05T04:25:41.578Z,9.70
2023-03-05T04:28:09.606Z,9.80
2023-03-05T04:30:37.690Z,9.80
2023-03-05T04:33:05.769Z,9.80
2023-03-05T04:35:33.825Z,9.90
2023-03-05T04:38:03.247Z,9.90
2023-03-05T04:40:31.271Z,9.90
2023-03-05T04:42:59.253Z,9.90
2023-03-05T04:45:27.266Z,9.80
2023-03-05T04:47:55.286Z,9.90
2023-03-05T04:50:23.334Z,9.90
2023-03-05T04:52:51.342Z,9.80
2023-03-05T04:55:20.965Z,9.70
2023-03-05T04:57:48.987Z,9.80
2023-03-05T05:00:17.844Z,9.70
2023-03-05T05:02:46.660Z,9.80
2023-03-05T05:05:15.669Z,9.90
2023-03-05T05:07:43.750Z,9.90
2023-03-05T05:10:12.601Z,9.90
2023-03-05T05:12:41.998Z,9.90
2023-03-05T05:15:11.087Z,9.90
2023-03-05T05:17:39.188Z,9.90
2023-03-05T05:20:08.865Z,9.90
2023-03-05T05:22:36.913Z,9.80
2023-03-05T05:25:05.215Z,9.80
2023-03-05T05:27:33.281Z,9.70
2023-03-05T05:30:04.149Z,9.70
2023-03-05T05:32:32.199Z,9.80
2023-03-05T05:35:00.218Z,9.90
2023-03-05T05:37:28.436Z,9.90
2023-03-05T05:39:56.456Z,9.90
2023-03-05T05:42:25.196Z,9.90
2023-03-05T05:44:53.357Z,9.90
2023-03-05T05:47:22.763Z,9.90
2023-03-05T05:49:50.756Z,9.90
2023-03-05T05:52:18.971Z,9.90
2023-03-05T05:54:46.989Z,9.80
2023-03-05T05:57:15.020Z,9.70
2023-03-05T05:59:42.982Z,9.70
2023-03-05T06:02:11.252Z,9.80
2023-03-05T06:04:40.652Z,9.80
2023-03-05T06:07:08.662Z,9.80
2023-03-05T06:09:36.714Z,9.90
2023-03-05T06:12:05.352Z,9.90
2023-03-05T06:14:33.368Z,9.90
2023-03-05T06:17:01.386Z,9.90
2023-03-05T06:19:29.484Z,9.80
2023-03-05T06:21:58.862Z,9.90
2023-03-05T06:24:26.844Z,9.80
2023-03-05T06:26:54.875Z,9.80
2023-03-05T06:29:22.874Z,9.70
2023-03-05T06:31:50.867Z,9.60
2023-03-05T06:34:18.982Z,9.60
2023-03-05T06:36:47.023Z,9.70
2023-03-05T06:39:16.497Z,9.70
2023-03-05T06:41:44.893Z,9.80
2023-03-05T06:44:12.909Z,9.80
2023-03-05T06:46:41.921Z,9.80
2023-03-05T06:49:10.540Z,9.80
2023-03-05T06:51:39.462Z,9.90
2023-03-05T06:54:08.210Z,9.80
2023-03-05T06:56:38.314Z,9.90
2023-03-05T06:59:06.999Z,9.90
2023-03-05T07:01:35.178Z,9.80
2023-03-05T07:04:04.169Z,9.80
2023-03-05T07:06:33.857Z,9.70
2023-03-05T07:09:04.531Z,9.70
2023-03-05T07:11:32.820Z,9.90
2023-03-05T07:14:02.668Z,9.80
2023-03-05T07:16:32.196Z,9.70
2023-03-05T07:19:02.923Z,9.90
2023-03-05T07:21:32.194Z,9.90
2023-03-05T07:24:01.530Z,9.80
2023-03-05T07:26:31.020Z,9.90
2023-03-05T07:28:59.495Z,9.90
2023-03-05T07:31:31.685Z,9.80
2023-03-05T07:34:00.487Z,9.70
2023-03-05T07:36:29.036Z,9.60
2023-03-05T07:38:57.231Z,9.70
2023-03-05T07:41:25.886Z,9.80
2023-03-05T07:43:55.452Z,9.90
2023-03-05T07:46:25.275Z,9.80
2023-03-05T07:48:55.758Z,9.80
2023-03-05T07:51:24.355Z,9.80
2023-03-05T07:53:52.894Z,9.90
2023-03-05T07:56:24.712Z,9.90
2023-03-05T07:58:53.370Z,9.90
2023-03-05T08:01:21.773Z,9.80
2023-03-05T08:03:50.243Z,9.50
2023-03-05T08:06:20.229Z,9.80
2023-03-05T08:08:48.398Z,9.80
2023-03-05T08:11:16.811Z,9.80
2023-03-05T08:13:46.092Z,9.80
2023-03-05T08:16:15.517Z,9.90
2023-03-05T08:18:43.834Z,9.80
2023-03-05T08:21:17.550Z,9.90
2023-03-05T08:23:47.275Z,9.90
2023-03-05T08:26:16.512Z,9.90
2023-03-05T08:28:45.020Z,9.90
2023-03-05T08:31:13.587Z,9.90
2023-03-05T08:33:42.040Z,9.90
2023-03-05T08:36:10.473Z,9.80
2023-03-05T08:38:38.793Z,9.70
2023-03-05T08:41:08.634Z,9.80
2023-03-05T08:43:37.083Z,9.70
2023-03-05T08:46:05.630Z,9.70
2023-03-05T08:48:34.884Z,9.90
2023-03-05T08:51:07.064Z,9.80
2023-03-05T08:53:35.470Z,9.90
2023-03-05T08:56:03.876Z,9.90
2023-03-05T08:58:33.707Z,9.90
2023-03-05T09:01:02.109Z,9.80
2023-03-05T09:03:30.894Z,9.90
2023-03-05T09:06:01.227Z,9.90
2023-03-05T09:08:30.821Z,9.80
2023-03-05T09:10:59.520Z,9.80
2023-03-05T09:13:28.637Z,9.80
2023-03-05T09:15:59.290Z,9.80
2023-03-05T09:18:28.237Z,9.80
2023-03-05T09:20:57.153Z,9.80
2023-03-05T09:23:25.522Z,9.90
2023-03-05T09:25:53.946Z,9.70
2023-03-05T09:28:22.243Z,9.80
2023-03-05T09:30:50.600Z,9.90
2023-03-05T09:33:20.562Z,9.90
2023-03-05T09:35:48.947Z,9.80
2023-03-05T09:38:19.144Z,9.80
2023-03-05T09:40:50.691Z,10.00
2023-03-05T09:43:26.112Z,10.00
2023-03-05T09:46:02.991Z,9.80
2023-03-05T09:48:40.396Z,9.90
2023-03-05T09:51:10.197Z,9.90
2023-03-05T09:53:40.771Z,9.90
2023-03-05T09:56:12.180Z,9.90
2023-03-05T09:58:41.357Z,10.00
2023-03-05T10:01:11.806Z,9.90
2023-03-05T10:03:46.649Z,9.90
2023-03-05T10:06:20.159Z,9.90
2023-03-05T10:08:52.850Z,9.90
2023-03-05T10:11:30.386Z,10.00
2023-03-05T10:13:58.695Z,10.00
2023-03-05T10:16:37.135Z,10.00
2023-03-05T10:19:08.525Z,10.00
2023-03-05T10:21:39.920Z,9.80
2023-03-05T10:24:12.951Z,10.00
2023-03-05T10:26:53.915Z,10.00
2023-03-05T10:29:56.766Z,10.00
2023-03-05T10:32:31.524Z,10.10
2023-03-05T10:35:08.981Z,9.90
2023-03-05T10:38:01.734Z,10.10
2023-03-05T10:40:32.752Z,10.10
2023-03-05T10:43:05.830Z,10.00
2023-03-05T10:45:36.437Z,10.00
2023-03-05T10:48:07.796Z,10.00
2023-03-05T10:50:38.343Z,10.00
2023-03-05T10:53:14.096Z,9.90
2023-03-05T10:55:42.437Z,10.00
2023-03-05T10:58:13.099Z,10.00
2023-03-05T11:00:43.482Z,9.90
2023-03-05T11:03:12.915Z,10.00
2023-03-05T11:05:44.571Z,9.90
2023-03-05T11:08:29.353Z,10.10
2023-03-05T11:11:11.656Z,10.10
2023-03-05T11:13:42.762Z,10.10
2023-03-05T11:16:20.877Z,10.20
2023-03-05T11:18:49.468Z,10.10
2023-03-05T11:21:27.769Z,10.20
2023-03-05T11:24:14.101Z,10.10
2023-03-05T11:26:50.360Z,10.10
2023-03-05T11:29:22.866Z,10.10
2023-03-05T11:31:51.171Z,10.10
2023-03-05T11:34:40.339Z,10.10
2023-03-05T11:37:20.734Z,10.10
2023-03-05T11:39:48.936Z,10.20
2023-03-05T11:42:20.329Z,10.20
2023-03-05T11:44:49.559Z,10.20
2023-03-05T11:47:25.469Z,10.30
2023-03-05T11:49:56.074Z,10.30
2023-03-05T11:52:26.331Z,10.20
2023-03-05T11:54:58.016Z,10.10
2023-03-05T11:57:26.231Z,10.20
2023-03-05T11:59:54.549Z,10.20
2023-03-05T12:02:24.077Z,10.20
2023-03-05T12:04:52.382Z,10.10
2023-03-05T12:07:23.189Z,10.20
2023-03-05T12:09:57.702Z,10.10
2023-03-05T12:12:41.172Z,10.30
2023-03-05T12:15:30.381Z,10.30
2023-03-05T12:18:03.101Z,10.30
2023-03-05T12:20:36.087Z,10.30
2023-03-05T12:23:05.489Z,10.30
2023-03-05T12:25:36.142Z,10.20
2023-03-05T12:28:04.354Z,10.30
2023-03-05T12:30:54.955Z,10.20
2023-03-05T12:33:36.911Z,10.20
2023-03-05T12:36:38.381Z,10.20
2023-03-05T12:39:45.289Z,10.20
2023-03-05T12:42:49.287Z,10.20
2023-03-05T12:45:34.409Z,10.30
2023-03-05T12:48:39.763Z,10.30
2023-03-05T12:51:07.916Z,10.30
2023-03-05T12:53:35.963Z,10.30
2023-03-05T12:56:12.679Z,10.20
2023-03-05T12:58:43.999Z,10.10
2023-03-05T13:01:26.782Z,10.20
2023-03-05T13:03:56.254Z,10.20
2023-03-05T13:06:25.870Z,10.20
2023-03-05T13:08:58.736Z,10.20
2023-03-05T13:11:26.885Z,10.20
2023-03-05T13:13:56.307Z,10.20
2023-03-05T13:16:26.111Z,10.20
2023-03-05T13:18:54.577Z,10.30
2023-03-05T13:21:26.633Z,10.30
2023-03-05T13:23:58.212Z,10.30
2023-03-05T13:26:26.895Z,10.40
2023-03-05T13:29:07.724Z,10.40
2023-03-05T13:31:36.472Z,10.30
2023-03-05T13:34:10.949Z,10.30
2023-03-05T13:36:39.520Z,10.30
2023-03-05T13:39:07.727Z,10.30
2023-03-05T13:41:35.854Z,10.30
2023-03-05T13:44:03.939Z,10.30
2023-03-05T13:46:34.307Z,10.30
2023-03-05T13:49:18.148Z,10.30
2023-03-05T13:51:47.033Z,10.40
2023-03-05T13:54:15.884Z,10.40
2023-03-05T13:56:54.034Z,10.40
2023-03-05T13:59:22.695Z,10.30
2023-03-05T14:01:52.577Z,10.30
2023-03-05T14:04:22.273Z,10.20
2023-03-05T14:06:51.401Z,10.20
2023-03-05T14:09:21.111Z,10.20
2023-03-05T14:12:02.984Z,10.30
2023-03-05T14:14:32.459Z,10.20
2023-03-05T14:17:37.561Z,10.20
2023-03-05T14:20:11.233Z,10.20
2023-03-05T14:22:40.439Z,10.30
2023-03-05T14:25:23.992Z,10.30
2023-03-05T14:27:52.134Z,10.30
2023-03-05T14:30:21.414Z,10.30
2023-03-05T14:32:50.893Z,10.30
2023-03-05T14:35:19.403Z,10.20
2023-03-05T14:37:49.290Z,10.10
2023-03-05T14:40:20.907Z,10.20
2023-03-05T14:42:53.041Z,10.20
2023-03-05T14:45:22.349Z,10.20
2023-03-05T14:47:52.643Z,10.20
2023-03-05T14:50:21.678Z,10.30
2023-03-05T14:52:51.237Z,10.30
2023-03-05T14:55:20.538Z,10.30
2023-03-05T14:57:48.983Z,10.30
2023-03-05T15:00:17.877Z,10.30
2023-03-05T15:02:46.207Z,10.30
2023-03-05T15:05:15.853Z,10.20
2023-03-05T15:07:44.683Z,10.20
2023-03-05T15:10:13.555Z,10.20
2023-03-05T15:12:42.533Z,10.10
2023-03-05T15:15:12.917Z,10.10
2023-03-05T15:17:43.107Z,10.20
2023-03-05T15:20:15.220Z,10.30
2023-03-05T15:22:44.951Z,10.20
2023-03-05T15:25:13.302Z,10.30
2023-03-05T15:27:41.553Z,10.30
2023-03-05T15:30:13.323Z,10.30
2023-03-05T15:32:41.549Z,10.30
2023-03-05T15:35:09.990Z,10.30
2023-03-05T15:37:38.100Z,10.20
2023-03-05T15:40:08.915Z,10.20
2023-03-05T15:42:36.984Z,10.10
2023-03-05T15:45:05.680Z,10.10
2023-03-05T15:47:33.762Z,10.20
2023-03-05T15:50:01.985Z,10.10
2023-03-05T15:52:30.126Z,10.10
2023-03-05T15:54:58.339Z,10.10
2023-03-05T15:57:28.331Z,10.20
2023-03-05T15:59:57.357Z,10.20
2023-03-05T16:02:25.726Z,10.30
2023-03-05T16:04:53.869Z,10.20
2023-03-05T16:07:23.717Z,10.10
2023-03-05T16:09:52.211Z,10.20
2023-03-05T16:12:21.449Z,10.20
2023-03-05T16:14:51.654Z,10.20
2023-03-05T16:17:20.562Z,10.20
2023-03-05T16:19:49.965Z,10.10
2023-03-05T16:22:18.456Z,10.20
2023-03-05T16:24:46.780Z,10.20
2023-03-05T16:27:14.849Z,10.20
2023-03-05T16:29:43.425Z,10.20
2023-03-05T16:32:12.837Z,10.20
2023-03-05T16:34:41.042Z,10.20
2023-03-05T16:37:09.100Z,10.20
2023-03-05T16:39:37.276Z,10.20
2023-03-05T16:42:05.956Z,10.20
2023-03-05T16:44:34.009Z,10.20
2023-03-05T16:47:02.529Z,10.10
2023-03-05T16:49:33.111Z,10.20
2023-03-05T16:52:06.239Z,10.20
2023-03-05T16:54:44.450Z,10.20
2023-03-05T16:57:12.559Z,10.20
2023-03-05T16:59:40.957Z,10.10
2023-03-05T17:02:09.082Z,10.20
2023-03-05T17:04:38.541Z,10.20
2023-03-05T17:07:06.977Z,10.10
2023-03-05T17:09:35.180Z,10.10
2023-03-05T17:12:03.644Z,10.00
2023-03-05T17:14:31.688Z,9.90
2023-03-05T17:17:01.313Z,10.00
2023-03-05T17:19:29.469Z,10.00
2023-03-05T17:21:58.943Z,10.10
2023-03-05T17:24:27.045Z,10.10
2023-03-05T17:26:55.124Z,10.10
2023-03-05T17:29:23.583Z,10.10
2023-03-05T17:31:53.663Z,10.10
2023-03-05T17:34:33.278Z,10.10
2023-03-05T17:37:03.315Z,10.10
2023-03-05T17:39:31.674Z,10.10
2023-03-05T17:41:59.816Z,10.10
2023-03-05T17:44:27.907Z,10.00
2023-03-05T17:46:55.977Z,10.00
2023-03-05T17:49:24.179Z,10.10
2023-03-05T17:51:52.376Z,10.10
2023-03-05T17:54:22.073Z,10.10
2023-03-05T17:56:50.389Z,10.10
2023-03-05T17:59:18.563Z,10.10
2023-03-05T18:01:46.646Z,10.20
2023-03-05T18:04:15.335Z,10.20
2023-03-05T18:06:43.602Z,10.10
2023-03-05T18:09:12.222Z,10.10
2023-03-05T18:11:42.197Z,10.10
2023-03-05T18:14:10.673Z,10.10
2023-03-05T18:16:38.777Z,10.10
2023-03-05T18:19:09.806Z,10.10
2023-03-05T18:21:38.127Z,10.10
2023-03-05T18:24:06.710Z,10.10
2023-03-05T18:26:34.992Z,10.10
2023-03-05T18:29:04.566Z,10.20
2023-03-05T18:31:32.689Z,10.20
2023-03-05T18:34:00.802Z,10.20
2023-03-05T18:36:29.014Z,10.20
2023-03-05T18:38:57.167Z,10.10
2023-03-05T18:41:27.877Z,10.10
2023-03-05T18:43:56.396Z,10.10
2023-03-05T18:46:26.037Z,10.00
2023-03-05T18:48:54.208Z,10.00
2023-03-05T18:51:22.682Z,10.00
2023-03-05T18:53:51.960Z,10.00
2023-03-05T18:56:20.350Z,10.10
2023-03-05T18:58:48.560Z,10.10
2023-03-05T19:01:17.562Z,10.10
2023-03-05T19:03:47.315Z,10.10
2023-03-05T19:06:16.064Z,10.10
2023-03-05T19:08:44.226Z,10.10
2023-03-05T19:11:15.716Z,10.10
2023-03-05T19:13:44.293Z,10.10
2023-03-05T19:16:13.621Z,10.00
2023-03-05T19:18:54.031Z,9.90
2023-03-05T19:21:23.638Z,9.90
2023-03-05T19:23:51.801Z,9.90
2023-03-05T19:26:19.943Z,9.90
2023-03-05T19:28:48.197Z,10.00
2023-03-05T19:31:16.413Z,9.90
2023-03-05T19:33:44.997Z,10.00
2023-03-05T19:36:13.184Z,10.00
2023-03-05T19:38:43.223Z,10.00
2023-03-05T19:41:12.949Z,10.00
2023-03-05T19:43:41.148Z,10.00
2023-03-05T19:46:09.447Z,10.00
2023-03-05T19:48:38.026Z,10.00
2023-03-05T19:51:09.780Z,10.00
2023-03-05T19:53:38.074Z,9.90
2023-03-05T19:56:08.505Z,9.90
2023-03-05T19:58:36.713Z,9.90
2023-03-05T20:01:11.379Z,10.00
2023-03-05T20:03:39.496Z,10.00
2023-03-05T20:06:07.747Z,10.10
2023-03-05T20:08:35.820Z,10.00
2023-03-05T20:11:03.890Z,10.10
2023-03-05T20:13:33.423Z,10.10
2023-03-05T20:16:01.531Z,10.00
2023-03-05T20:18:29.589Z,10.00
2023-03-05T20:21:01.710Z,10.00
2023-03-05T20:23:29.977Z,9.90
2023-03-05T20:25:58.000Z,9.90
2023-03-05T20:28:26.869Z,9.90
2023-03-05T20:30:56.736Z,10.00
2023-03-05T20:33:24.849Z,10.00
2023-03-05T20:35:53.448Z,10.00
2023-03-05T20:38:22.384Z,10.00
2023-03-05T20:40:51.018Z,10.00
2023-03-05T20:43:19.192Z,10.10
2023-03-05T20:45:47.267Z,10.00
2023-03-05T20:48:16.652Z,10.00
2023-03-05T20:50:46.732Z,10.00
2023-03-05T20:53:15.063Z,9.90
2023-03-05T20:55:43.386Z,9.90
2023-03-05T20:58:11.503Z,9.90
2023-03-05T21:00:40.174Z,9.90
2023-03-05T21:03:09.475Z,9.90
2023-03-05T21:05:38.982Z,10.00
2023-03-05T21:08:07.158Z,10.00
2023-03-05T21:10:35.239Z,10.00
2023-03-05T21:13:03.235Z,10.00
2023-03-05T21:15:31.451Z,10.00
2023-03-05T21:17:59.623Z,10.00
2023-03-05T21:20:29.300Z,9.90
2023-03-05T21:22:59.015Z,9.90
2023-03-05T21:25:27.691Z,9.90
2023-03-05T21:27:57.346Z,9.80
2023-03-05T21:30:28.459Z,9.80
2023-03-05T21:32:58.053Z,9.80
2023-03-05T21:35:26.629Z,9.80
2023-03-05T21:37:54.688Z,9.80
2023-03-05T21:40:24.362Z,9.90
2023-03-05T21:42:52.814Z,9.90
2023-03-05T21:45:22.021Z,9.90
2023-03-05T21:47:52.070Z,10.00
2023-03-05T21:50:20.342Z,9.90
2023-03-05T21:52:48.430Z,9.90
2023-03-05T21:55:17.441Z,9.90
2023-03-05T21:57:47.717Z,9.90
2023-03-05T22:00:18.181Z,9.90
2023-03-05T22:02:47.066Z,9.80
2023-03-05T22:05:15.604Z,9.90
2023-03-05T22:07:43.732Z,9.80
2023-03-05T22:10:13.398Z,9.90
2023-03-05T22:12:53.407Z,9.90
2023-03-05T22:15:23.147Z,9.90
2023-03-05T22:17:51.363Z,9.90
2023-03-05T22:20:19.814Z,10.00
2023-03-05T22:22:47.930Z,9.90
2023-03-05T22:25:16.530Z,9.90
2023-03-05T22:27:44.673Z,9.90
2023-03-05T22:30:13.775Z,9.80
2023-03-05T22:32:43.371Z,9.80
2023-03-05T22:35:12.968Z,9.80
2023-03-05T22:37:41.495Z,9.80
2023-03-05T22:40:10.805Z,9.90
2023-03-05T22:42:38.852Z,9.90
2023-03-05T22:45:07.926Z,9.90
2023-03-05T22:47:36.234Z,9.90
2023-03-05T22:50:06.453Z,9.90
2023-03-05T22:52:34.467Z,10.00
2023-03-05T22:55:03.162Z,9.90
2023-03-05T22:57:31.169Z,9.90
2023-03-05T22:59:59.394Z,9.90
2023-03-05T23:02:27.379Z,9.80
2023-03-05T23:04:57.767Z,9.80
2023-03-05T23:07:28.009Z,9.80
2023-03-05T23:09:56.745Z,9.80
2023-03-05T23:12:25.339Z,9.90
2023-03-05T23:14:53.325Z,9.90
2023-03-05T23:17:21.398Z,9.90
2023-03-05T23:19:49.469Z,9.90
2023-03-05T23:22:17.461Z,9.90
2023-03-05T23:24:46.870Z,9.90
2023-03-05T23:27:15.703Z,9.90
2023-03-05T23:29:58.732Z,9.90
2023-03-05T23:32:29.106Z,9.80
2023-03-05T23:34:57.156Z,9.70
2023-03-05T23:37:25.187Z,9.60
2023-03-05T23:39:54.531Z,9.60
2023-03-05T23:42:22.564Z,9.60
2023-03-05T23:44:50.548Z,9.70
2023-03-05T23:47:18.537Z,9.80
2023-03-05T23:49:46.572Z,9.80
2023-03-05T23:52:14.693Z,9.90
2023-03-05T23:54:42.718Z,9.80
2023-03-05T23:57:12.130Z,9.90
2023-03-05T23:59:40.162Z,9.90
